createdAt,value
2022-09-21T00:00:49.793Z,100.00
2022-09-21T00:03:18.987Z,100.00
2022-09-21T00:05:46.794Z,100.00
2022-09-21T00:08:15.369Z,100.00
2022-09-21T00:10:43.079Z,100.00
2022-09-21T00:13:13.370Z,100.00
2022-09-21T00:15:41.844Z,100.00
2022-09-21T00:18:11.266Z,100.00
2022-09-21T00:20:43.464Z,100.00
2022-09-21T00:23:11.404Z,100.00
2022-09-21T00:25:39.255Z,100.00
2022-09-21T00:28:06.988Z,100.00
2022-09-21T00:30:34.745Z,100.00
2022-09-21T00:33:02.417Z,100.00
2022-09-21T00:35:30.123Z,100.00
2022-09-21T00:38:03.214Z,100.00
2022-09-21T00:40:31.283Z,100.00
2022-09-21T00:43:13.517Z,100.00
2022-09-21T00:45:42.087Z,100.00
2022-09-21T00:48:10.640Z,100.00
2022-09-21T00:50:43.692Z,100.00
2022-09-21T00:53:13.097Z,100.00
2022-09-21T00:55:44.263Z,100.00
2022-09-21T00:58:18.041Z,100.00
2022-09-21T01:00:46.053Z,100.00
2022-09-21T01:03:14.220Z,100.00
2022-09-21T01:05:41.940Z,100.00
2022-09-21T01:08:13.067Z,100.00
2022-09-21T01:10:57.860Z,100.00
2022-09-21T01:13:35.861Z,100.00
2022-09-21T01:16:12.391Z,100.00
2022-09-21T01:18:46.728Z,100.00
2022-09-21T01:21:20.089Z,100.00
2022-09-21T01:24:37.729Z,100.00
2022-09-21T01:27:57.064Z,100.00
2022-09-21T01:30:26.676Z,100.00
2022-09-21T01:33:00.337Z,100.00
2022-09-21T01:35:31.624Z,100.00
2022-09-21T01:38:03.222Z,100.00
2022-09-21T01:40:35.995Z,100.00
2022-09-21T01:43:07.316Z,100.00
2022-09-21T01:45:41.258Z,100.00
2022-09-21T01:48:11.172Z,100.00
2022-09-21T01:50:43.359Z,100.00
2022-09-21T01:53:18.697Z,100.00
2022-09-21T01:55:52.503Z,100.00
2022-09-21T01:58:25.612Z,100.00
2022-09-21T02:00:59.168Z,100.00
2022-09-21T02:03:32.039Z,100.00
2022-09-21T02:06:01.902Z,100.00
2022-09-21T02:08:32.249Z,100.00
2022-09-21T02:11:02.552Z,100.00
2022-09-21T02:13:33.652Z,100.00
2022-09-21T02:16:22.112Z,100.00
2022-09-21T02:18:59.923Z,100.00
2022-09-21T02:21:34.178Z,100.00
2022-09-21T02:24:10.779Z,100.00
2022-09-21T02:26:46.380Z,100.00
2022-09-21T02:29:19.515Z,100.00
2022-09-21T02:31:54.661Z,100.00
2022-09-21T02:34:29.540Z,100.00
2022-09-21T02:37:02.044Z,100.00
2022-09-21T02:39:35.472Z,100.00
2022-09-21T02:42:10.030Z,100.00
2022-09-21T02:44:41.510Z,100.00
2022-09-21T02:47:18.485Z,100.00
2022-09-21T02:49:54.595Z,100.00
2022-09-21T02:52:23.439Z,100.00
2022-09-21T02:54:54.571Z,100.00
2022-09-21T02:57:24.539Z,100.00
2022-09-21T02:59:53.316Z,100.00
2022-09-21T03:02:22.422Z,100.00
2022-09-21T03:04:50.590Z,100.00
2022-09-21T03:07:18.904Z,100.00
2022-09-21T03:09:46.727Z,100.00
2022-09-21T03:12:14.490Z,100.00
2022-09-21T03:14:42.530Z,100.00
2022-09-21T03:17:10.232Z,100.00
2022-09-21T03:19:39.345Z,100.00
2022-09-21T03:22:07.023Z,100.00
2022-09-21T03:24:46.619Z,100.00
2022-09-21T03:27:14.827Z,100.00
2022-09-21T03:29:42.607Z,100.00
2022-09-21T03:32:10.606Z,100.00
2022-09-21T03:34:39.702Z,100.00
2022-09-21T03:37:10.077Z,100.00
2022-09-21T03:39:37.845Z,100.00
2022-09-21T03:42:05.911Z,100.00
2022-09-21T03:44:33.698Z,100.00
2022-09-21T03:47:01.436Z,100.00
2022-09-21T03:49:29.186Z,100.00
2022-09-21T03:51:59.512Z,100.00
2022-09-21T03:54:27.254Z,100.00
2022-09-21T03:56:55.060Z,100.00
2022-09-21T03:59:22.767Z,100.00
2022-09-21T04:01:50.574Z,100.00
2022-09-21T04:04:18.311Z,100.00
2022-09-21T04:06:46.180Z,100.00
2022-09-21T04:09:15.277Z,100.00
2022-09-21T04:11:43.045Z,100.00
2022-09-21T04:14:12.392Z,100.00
2022-09-21T04:16:40.221Z,100.00
2022-09-21T04:19:07.982Z,100.00
2022-09-21T04:21:35.859Z,100.00
2022-09-21T04:24:04.123Z,100.00
2022-09-21T04:26:35.932Z,100.00
2022-09-21T04:29:04.123Z,100.00
2022-09-21T04:31:31.927Z,100.00
2022-09-21T04:34:00.005Z,100.00
2022-09-21T04:36:34.374Z,100.00
2022-09-21T04:39:04.904Z,100.00
2022-09-21T04:41:34.184Z,100.00
2022-09-21T04:44:02.271Z,100.00
2022-09-21T04:46:30.079Z,100.00
2022-09-21T04:48:57.988Z,100.00
2022-09-21T04:51:25.718Z,100.00
2022-09-21T04:53:53.503Z,100.00
2022-09-21T04:56:21.235Z,100.00
2022-09-21T04:58:50.349Z,100.00
2022-09-21T05:01:18.563Z,100.00
2022-09-21T05:03:46.367Z,100.00
2022-09-21T05:06:14.991Z,100.00
2022-09-21T05:09:00.161Z,100.00
2022-09-21T05:11:28.034Z,100.00
2022-09-21T05:13:57.148Z,100.00
2022-09-21T05:16:24.904Z,100.00
2022-09-21T05:18:55.188Z,100.00
2022-09-21T05:21:23.139Z,100.00
2022-09-21T05:23:50.963Z,100.00
2022-09-21T05:26:18.943Z,100.00
2022-09-21T05:28:47.552Z,100.00
2022-09-21T05:31:31.926Z,100.00
2022-09-21T05:34:07.028Z,100.00
2022-09-21T05:36:46.258Z,100.00
2022-09-21T05:39:14.518Z,100.00
2022-09-21T05:41:42.966Z,100.00
2022-09-21T05:44:13.530Z,100.00
2022-09-21T05:46:52.714Z,100.00
2022-09-21T05:49:27.960Z,100.00
2022-09-21T05:52:03.422Z,100.00
2022-09-21T05:54:42.014Z,100.00
2022-09-21T05:57:16.907Z,100.00
2022-09-21T05:59:59.238Z,100.00
2022-09-21T06:02:51.524Z,100.00
2022-09-21T06:05:20.195Z,100.00
2022-09-21T06:07:47.911Z,100.00
2022-09-21T06:10:16.733Z,100.00
2022-09-21T06:12:44.797Z,100.00
2022-09-21T06:15:14.794Z,100.00
2022-09-21T06:17:44.320Z,100.00
2022-09-21T06:20:12.096Z,100.00
2022-09-21T06:22:39.840Z,100.00
2022-09-21T06:25:08.788Z,100.00
2022-09-21T06:27:36.612Z,100.00
2022-09-21T06:30:04.784Z,100.00
2022-09-21T06:32:32.645Z,100.00
2022-09-21T06:35:01.793Z,100.00
2022-09-21T06:37:29.562Z,100.00
2022-09-21T06:39:57.336Z,100.00
2022-09-21T06:42:25.097Z,100.00
2022-09-21T06:44:52.990Z,100.00
2022-09-21T06:47:20.742Z,100.00
2022-09-21T06:49:48.711Z,100.00
2022-09-21T06:52:17.939Z,100.00
2022-09-21T06:54:45.769Z,100.00
2022-09-21T06:57:13.685Z,100.00
2022-09-21T06:59:41.519Z,100.00
2022-09-21T07:02:11.586Z,100.00
2022-09-21T07:04:39.388Z,100.00
2022-09-21T07:07:07.427Z,100.00
2022-09-21T07:12:26.184Z,100.00
2022-09-21T07:14:54.001Z,100.00
2022-09-21T07:17:21.824Z,100.00
2022-09-21T07:19:49.897Z,100.00
2022-09-21T07:22:17.728Z,100.00
2022-09-21T07:24:46.998Z,100.00
2022-09-21T07:27:14.812Z,100.00
2022-09-21T07:29:42.798Z,100.00
2022-09-21T07:32:10.884Z,100.00
2022-09-21T07:34:38.710Z,100.00
2022-09-21T07:37:06.610Z,100.00
2022-09-21T07:39:35.529Z,100.00
2022-09-21T07:42:04.853Z,100.00
2022-09-21T07:44:33.077Z,100.00
2022-09-21T07:47:01.270Z,100.00
2022-09-21T07:49:29.108Z,100.00
2022-09-21T07:52:01.450Z,100.00
2022-09-21T07:54:31.871Z,100.00
2022-09-21T07:57:16.959Z,100.00
2022-09-21T07:59:46.499Z,100.00
2022-09-21T08:02:14.384Z,100.00
2022-09-21T08:04:42.258Z,100.00
2022-09-21T08:07:10.036Z,100.00
2022-09-21T08:09:37.781Z,100.00
2022-09-21T08:12:05.620Z,100.00
2022-09-21T08:14:33.832Z,100.00
2022-09-21T08:17:04.047Z,100.00
2022-09-21T08:19:31.859Z,100.00
2022-09-21T08:21:59.695Z,100.00
2022-09-21T08:24:27.559Z,100.00
2022-09-21T08:26:56.038Z,100.00
2022-09-21T08:29:24.915Z,100.00
2022-09-21T08:31:53.367Z,100.00
2022-09-21T08:34:23.999Z,100.00
2022-09-21T08:36:55.263Z,100.00
2022-09-21T08:39:23.883Z,100.00
2022-09-21T08:42:11.660Z,100.00
2022-09-21T08:44:44.113Z,100.00
2022-09-21T08:47:16.950Z,100.00
2022-09-21T08:49:52.777Z,100.00
2022-09-21T08:52:25.035Z,100.00
2022-09-21T08:54:57.055Z,100.00
2022-09-21T08:57:29.903Z,100.00
2022-09-21T08:59:58.147Z,100.00
2022-09-21T09:02:46.179Z,100.00
2022-09-21T09:05:38.525Z,100.00
2022-09-21T09:08:29.614Z,100.00
2022-09-21T09:11:07.871Z,100.00
2022-09-21T09:14:09.773Z,100.00
2022-09-21T09:16:48.788Z,100.00
2022-09-21T09:19:23.309Z,98.90
2022-09-21T09:21:53.233Z,99.38
2022-09-21T09:24:34.196Z,98.01
2022-09-21T09:27:07.413Z,100.00
2022-09-21T09:29:45.391Z,99.32
2022-09-21T09:32:16.103Z,99.29
2022-09-21T09:34:51.564Z,98.57
2022-09-21T09:37:26.505Z,97.07
2022-09-21T09:39:57.839Z,97.18
2022-09-21T09:42:41.247Z,93.22
2022-09-21T09:45:26.360Z,94.55
2022-09-21T09:48:07.880Z,94.89
2022-09-21T09:50:38.764Z,91.36
2022-09-21T09:53:12.440Z,90.05
2022-09-21T09:55:43.690Z,90.68
2022-09-21T09:58:20.392Z,88.46
2022-09-21T10:00:52.182Z,86.54
2022-09-21T10:03:23.096Z,84.48
2022-09-21T10:05:51.494Z,82.36
2022-09-21T10:08:43.008Z,83.39
2022-09-21T10:11:12.361Z,83.79
2022-09-21T10:13:42.550Z,81.25
2022-09-21T10:16:15.023Z,79.17
2022-09-21T10:18:48.662Z,76.39
2022-09-21T10:21:22.401Z,72.42
2022-09-21T10:23:55.164Z,72.33
2022-09-21T10:26:23.614Z,71.15
2022-09-21T10:28:57.690Z,69.56
2022-09-21T10:31:27.110Z,70.88
2022-09-21T10:34:06.563Z,67.98
2022-09-21T10:36:36.719Z,60.23
2022-09-21T10:39:18.724Z,58.68
2022-09-21T10:41:52.489Z,60.96
2022-09-21T10:44:22.488Z,61.17
2022-09-21T10:46:51.798Z,55.19
2022-09-21T10:49:23.333Z,50.83
2022-09-21T10:51:54.361Z,48.14
2022-09-21T10:54:27.595Z,45.32
2022-09-21T10:56:58.841Z,47.66
2022-09-21T10:59:29.492Z,47.41
2022-09-21T11:01:58.895Z,46.24
2022-09-21T11:04:38.790Z,48.44
2022-09-21T11:07:13.322Z,48.21
2022-09-21T11:09:48.436Z,47.86
2022-09-21T11:12:32.366Z,44.05
2022-09-21T11:15:10.062Z,44.04
2022-09-21T11:17:42.996Z,42.40
2022-09-21T11:20:27.754Z,43.70
2022-09-21T11:23:04.534Z,42.47
2022-09-21T11:25:40.276Z,42.72
2022-09-21T11:28:22.809Z,43.70
2022-09-21T11:31:06.796Z,43.01
2022-09-21T11:33:46.830Z,44.34
2022-09-21T11:36:23.515Z,42.38
2022-09-21T11:39:00.908Z,42.13
2022-09-21T11:41:49.921Z,42.59
2022-09-21T11:44:38.231Z,43.23
2022-09-21T11:47:17.158Z,43.83
2022-09-21T11:50:31.478Z,44.93
2022-09-21T11:53:14.405Z,43.71
2022-09-21T11:55:55.225Z,45.03
2022-09-21T11:58:33.319Z,45.75
2022-09-21T12:01:12.088Z,43.77
2022-09-21T12:03:57.026Z,42.41
2022-09-21T12:06:43.761Z,40.45
2022-09-21T12:09:37.929Z,40.79
2022-09-21T12:12:11.450Z,39.18
2022-09-21T12:14:50.239Z,37.85
2022-09-21T12:17:45.634Z,37.11
2022-09-21T12:20:21.815Z,38.55
2022-09-21T12:22:56.588Z,36.13
2022-09-21T12:25:27.135Z,36.76
2022-09-21T12:28:02.110Z,37.56
2022-09-21T12:30:33.251Z,36.67
2022-09-21T12:33:05.687Z,36.12
2022-09-21T12:35:39.209Z,36.19
2022-09-21T12:38:16.510Z,36.37
2022-09-21T12:41:02.602Z,35.89
2022-09-21T12:43:37.864Z,35.25
2022-09-21T12:46:13.052Z,35.59
2022-09-21T12:48:42.327Z,36.38
2022-09-21T12:51:15.548Z,34.21
2022-09-21T12:53:50.793Z,34.59
2022-09-21T12:56:30.562Z,34.06
2022-09-21T12:59:11.410Z,34.83
2022-09-21T13:01:52.356Z,35.22
2022-09-21T13:04:41.844Z,35.76
2022-09-21T13:07:30.162Z,35.63
2022-09-21T13:09:58.812Z,35.94
2022-09-21T13:12:30.530Z,35.76
2022-09-21T13:15:04.085Z,35.94
2022-09-21T13:17:34.507Z,36.30
2022-09-21T13:20:06.531Z,36.66
2022-09-21T13:22:37.373Z,36.85
2022-09-21T13:25:09.331Z,36.03
2022-09-21T13:28:04.357Z,35.22
2022-09-21T13:30:38.676Z,35.99
2022-09-21T13:33:32.777Z,36.40
2022-09-21T13:36:30.112Z,36.88
2022-09-21T13:39:06.092Z,37.07
2022-09-21T13:41:59.009Z,35.42
2022-09-21T13:44:41.810Z,36.94
2022-09-21T13:47:11.445Z,37.44
2022-09-21T13:49:59.712Z,39.00
2022-09-21T13:52:35.312Z,38.38
2022-09-21T13:55:06.034Z,39.41
2022-09-21T13:57:39.063Z,40.61
2022-09-21T14:00:27.779Z,39.03
2022-09-21T14:03:00.524Z,39.59
2022-09-21T14:05:35.420Z,38.93
2022-09-21T14:08:06.355Z,38.53
2022-09-21T14:10:37.279Z,40.13
2022-09-21T14:13:24.476Z,39.23
2022-09-21T14:15:52.530Z,38.09
2022-09-21T14:18:37.668Z,38.34
2022-09-21T14:21:18.547Z,37.23
2022-09-21T14:24:21.799Z,38.00
2022-09-21T14:27:00.808Z,37.31
2022-09-21T14:29:36.268Z,38.92
2022-09-21T14:32:06.385Z,37.30
2022-09-21T14:34:37.894Z,37.60
2022-09-21T14:37:15.753Z,38.12
2022-09-21T14:39:46.269Z,38.60
2022-09-21T14:42:18.096Z,38.89
2022-09-21T14:44:47.737Z,37.99
2022-09-21T14:47:48.833Z,39.69
2022-09-21T14:50:29.034Z,39.40
2022-09-21T14:53:19.529Z,38.51
2022-09-21T14:56:03.486Z,40.00
2022-09-21T14:58:45.034Z,39.58
2022-09-21T15:01:23.000Z,38.94
2022-09-21T15:04:16.638Z,39.99
2022-09-21T15:07:09.398Z,40.72
2022-09-21T15:10:13.282Z,41.57
2022-09-21T15:12:47.538Z,42.73
2022-09-21T15:15:30.905Z,42.54
2022-09-21T15:18:01.847Z,41.24
2022-09-21T15:20:32.064Z,41.34
2022-09-21T15:23:02.076Z,42.78
2022-09-21T15:25:34.174Z,42.49
2022-09-21T15:28:04.129Z,41.68
2022-09-21T15:30:44.032Z,42.20
2022-09-21T15:33:13.969Z,43.03
2022-09-21T15:35:47.676Z,43.98
2022-09-21T15:38:28.397Z,43.60
2022-09-21T15:41:02.754Z,45.01
2022-09-21T15:43:34.341Z,45.78
2022-09-21T15:46:04.136Z,46.79
2022-09-21T15:48:34.503Z,47.41
2022-09-21T15:51:07.568Z,47.13
2022-09-21T15:53:42.341Z,45.39
2022-09-21T15:56:19.345Z,46.28
2022-09-21T15:58:49.915Z,47.55
2022-09-21T16:01:21.402Z,46.88
2022-09-21T16:03:55.133Z,47.45
2022-09-21T16:06:27.145Z,48.04
2022-09-21T16:08:55.751Z,47.48
2022-09-21T16:11:37.694Z,47.28
2022-09-21T16:14:29.439Z,46.11
2022-09-21T16:17:22.726Z,47.97
2022-09-21T16:20:23.002Z,49.93
2022-09-21T16:22:55.377Z,51.40
2022-09-21T16:25:32.508Z,53.28
2022-09-21T16:28:03.540Z,54.52
2022-09-21T16:30:57.298Z,55.93
2022-09-21T16:33:40.975Z,56.62
2022-09-21T16:36:37.863Z,55.92
2022-09-21T16:39:09.424Z,53.59
2022-09-21T16:41:41.357Z,55.10
2022-09-21T16:44:20.652Z,54.97
2022-09-21T16:46:53.778Z,56.09
2022-09-21T16:49:25.789Z,56.57
2022-09-21T16:51:55.859Z,56.56
2022-09-21T16:54:25.165Z,57.39
2022-09-21T16:56:55.108Z,59.52
2022-09-21T16:59:25.114Z,63.07
2022-09-21T17:01:56.487Z,65.86
2022-09-21T17:04:26.105Z,67.35
2022-09-21T17:06:55.321Z,67.82
2022-09-21T17:09:29.438Z,70.03
2022-09-21T17:11:59.308Z,72.41
2022-09-21T17:14:29.490Z,74.66
2022-09-21T17:17:00.046Z,75.85
2022-09-21T17:19:27.897Z,76.12
2022-09-21T17:21:55.681Z,76.58
2022-09-21T17:24:48.731Z,75.96
2022-09-21T17:27:12.238Z,76.00
2022-09-21T17:29:47.804Z,76.36
2022-09-21T17:32:16.800Z,78.46
2022-09-21T17:34:44.822Z,81.47
2022-09-21T17:37:12.994Z,82.09
2022-09-21T17:39:42.481Z,82.63
2022-09-21T17:42:18.919Z,82.93
2022-09-21T17:45:06.787Z,82.57
2022-09-21T17:47:35.034Z,83.32
2022-09-21T17:50:19.496Z,83.57
2022-09-21T17:53:05.503Z,83.95
2022-09-21T17:55:33.719Z,83.83
2022-09-21T17:58:14.309Z,85.26
2022-09-21T18:00:53.272Z,86.50
2022-09-21T18:03:23.516Z,87.29
2022-09-21T18:05:55.776Z,87.65
2022-09-21T18:08:26.368Z,88.48
2022-09-21T18:11:03.881Z,88.00
2022-09-21T18:13:41.270Z,88.29
2022-09-21T18:16:28.050Z,88.87
2022-09-21T18:19:24.243Z,89.89
2022-09-21T18:21:58.079Z,90.64
2022-09-21T18:24:31.141Z,91.17
2022-09-21T18:27:00.011Z,92.01
2022-09-21T18:29:40.855Z,92.35
2022-09-21T18:32:32.216Z,92.86
2022-09-21T18:35:19.259Z,93.90
2022-09-21T18:37:59.999Z,93.97
2022-09-21T18:40:34.367Z,93.99
2022-09-21T18:43:16.498Z,94.33
2022-09-21T18:45:49.031Z,93.89
2022-09-21T18:48:36.108Z,94.70
2022-09-21T18:51:15.093Z,94.75
2022-09-21T18:53:46.866Z,95.01
2022-09-21T18:56:15.549Z,95.21
2022-09-21T18:58:44.085Z,95.95
2022-09-21T19:01:13.614Z,96.22
2022-09-21T19:03:43.967Z,96.41
2022-09-21T19:06:25.390Z,97.28
2022-09-21T19:09:03.608Z,97.13
2022-09-21T19:11:40.185Z,97.34
2022-09-21T19:14:18.509Z,96.84
2022-09-21T19:16:57.657Z,96.72
2022-09-21T19:19:35.355Z,96.65
2022-09-21T19:22:13.238Z,97.18
2022-09-21T19:24:54.158Z,97.26
2022-09-21T19:27:37.712Z,98.26
2022-09-21T19:30:08.720Z,98.66
2022-09-21T19:32:40.849Z,99.12
2022-09-21T19:35:23.029Z,99.83
2022-09-21T19:37:52.902Z,100.00
2022-09-21T19:40:33.396Z,100.00
2022-09-21T19:43:20.618Z,100.00
2022-09-21T19:46:04.398Z,100.00
2022-09-21T19:48:41.939Z,100.00
2022-09-21T19:51:19.295Z,100.00
2022-09-21T19:54:08.946Z,100.00
2022-09-21T19:56:58.199Z,100.00
2022-09-21T19:59:44.623Z,100.00
2022-09-21T20:02:15.219Z,100.00
2022-09-21T20:04:50.039Z,100.00
2022-09-21T20:07:26.875Z,100.00
2022-09-21T20:10:26.654Z,100.00
2022-09-21T20:13:04.836Z,100.00
2022-09-21T20:15:39.350Z,100.00
2022-09-21T20:18:15.717Z,100.00
2022-09-21T20:20:43.593Z,100.00
2022-09-21T20:23:14.120Z,100.00
2022-09-21T20:25:50.528Z,100.00
2022-09-21T20:28:19.329Z,100.00
2022-09-21T20:30:47.209Z,100.00
2022-09-21T20:33:17.024Z,100.00
2022-09-21T20:35:45.521Z,100.00
2022-09-21T20:38:15.388Z,100.00
2022-09-21T20:40:44.345Z,100.00
2022-09-21T20:43:14.101Z,100.00
2022-09-21T20:45:46.272Z,100.00
2022-09-21T20:48:14.498Z,100.00
2022-09-21T20:50:42.924Z,100.00
2022-09-21T20:53:10.823Z,100.00
2022-09-21T20:55:41.075Z,100.00
2022-09-21T20:58:11.824Z,100.00
2022-09-21T21:00:39.844Z,100.00
2022-09-21T21:03:07.981Z,100.00
2022-09-21T21:05:35.760Z,100.00
2022-09-21T21:08:04.657Z,100.00
2022-09-21T21:10:32.551Z,100.00
2022-09-21T21:13:02.571Z,100.00
2022-09-21T21:15:31.299Z,100.00
2022-09-21T21:17:59.081Z,100.00
2022-09-21T21:20:27.033Z,100.00
2022-09-21T21:22:54.826Z,100.00
2022-09-21T21:25:22.607Z,100.00
2022-09-21T21:27:50.430Z,100.00
2022-09-21T21:30:19.830Z,100.00
2022-09-21T21:32:52.139Z,100.00
2022-09-21T21:35:20.189Z,100.00
2022-09-21T21:37:48.033Z,100.00
2022-09-21T21:40:16.213Z,100.00
2022-09-21T21:42:44.089Z,100.00
2022-09-21T21:45:12.078Z,100.00
2022-09-21T21:47:41.650Z,100.00
2022-09-21T21:50:11.218Z,100.00
2022-09-21T21:52:39.443Z,100.00
2022-09-21T21:55:08.063Z,100.00
2022-09-21T21:57:35.933Z,100.00
2022-09-21T22:00:05.139Z,100.00
2022-09-21T22:02:33.027Z,100.00
2022-09-21T22:05:02.146Z,100.00
2022-09-21T22:07:29.984Z,100.00
2022-09-21T22:09:57.742Z,100.00
2022-09-21T22:12:26.119Z,100.00
2022-09-21T22:14:55.988Z,100.00
2022-09-21T22:17:24.336Z,100.00
2022-09-21T22:19:54.043Z,100.00
2022-09-21T22:22:23.143Z,100.00
2022-09-21T22:24:50.923Z,100.00
2022-09-21T22:27:18.745Z,100.00
2022-09-21T22:29:46.494Z,100.00
2022-09-21T22:32:14.288Z,100.00
2022-09-21T22:34:42.017Z,100.00
2022-09-21T22:37:09.815Z,100.00
2022-09-21T22:39:39.082Z,100.00
2022-09-21T22:42:07.140Z,100.00
2022-09-21T22:44:35.272Z,100.00
2022-09-21T22:47:03.116Z,100.00
2022-09-21T22:49:30.974Z,100.00
2022-09-21T22:51:58.720Z,100.00
2022-09-21T22:54:27.670Z,100.00
2022-09-21T22:56:57.000Z,100.00
2022-09-21T22:59:25.535Z,100.00
2022-09-21T23:01:53.253Z,100.00
2022-09-21T23:04:21.262Z,100.00
2022-09-21T23:06:50.185Z,100.00
2022-09-21T23:09:20.839Z,100.00
2022-09-21T23:11:53.203Z,100.00
2022-09-21T23:14:23.389Z,100.00
2022-09-21T23:16:51.405Z,100.00
2022-09-21T23:19:19.247Z,100.00
2022-09-21T23:21:49.476Z,100.00
2022-09-21T23:24:17.950Z,100.00
2022-09-21T23:26:46.653Z,100.00
2022-09-21T23:29:16.223Z,100.00
2022-09-21T23:31:46.424Z,100.00
2022-09-21T23:34:16.530Z,100.00
2022-09-21T23:36:45.751Z,100.00
2022-09-21T23:39:15.484Z,100.00
2022-09-21T23:41:43.787Z,100.00
2022-09-21T23:44:11.578Z,100.00
2022-09-21T23:46:42.045Z,100.00
2022-09-21T23:49:11.339Z,100.00
2022-09-21T23:51:39.768Z,100.00
2022-09-21T23:54:07.720Z,100.00
2022-09-21T23:56:35.518Z,100.00
2022-09-21T23:59:05.959Z,100.00
